sensor_id;sensor_type;location;lat;lon;timestamp;temperature;humidity
10848;DHT22;5477;48.806;9.154;2023-02-02T00:02:26;6.70;99.90
10848;DHT22;5477;48.806;9.154;2023-02-02T00:04:55;6.60;99.90
10848;DHT22;5477;48.806;9.154;2023-02-02T00:07:24;6.60;99.90
10848;DHT22;5477;48.806;9.154;2023-02-02T00:09:52;6.60;99.90
10848;DHT22;5477;48.806;9.154;2023-02-02T00:12:20;6.60;99.90
10848;DHT22;5477;48.806;9.154;2023-02-02T00:14:48;6.60;99.90
10848;DHT22;5477;48.806;9.154;2023-02-02T00:17:16;6.70;99.90
10848;DHT22;5477;48.806;9.154;2023-02-02T00:19:44;6.70;99.90
10848;DHT22;5477;48.806;9.154;2023-02-02T00:22:13;6.70;99.90
10848;DHT22;5477;48.806;9.154;2023-02-02T00:24:42;6.70;99.90
10848;DHT22;5477;48.806;9.154;2023-02-02T00:27:10;6.60;99.90
10848;DHT22;5477;48.806;9.154;2023-02-02T00:29:38;6.60;99.90
10848;DHT22;5477;48.806;9.154;2023-02-02T00:32:06;6.60;99.90
10848;DHT22;5477;48.806;9.154;2023-02-02T00:34:34;6.70;99.90
10848;DHT22;5477;48.806;9.154;2023-02-02T00:37:04;6.60;99.90
10848;DHT22;5477;48.806;9.154;2023-02-02T00:39:34;6.60;99.90
10848;DHT22;5477;48.806;9.154;2023-02-02T00:42:02;6.60;99.90
10848;DHT22;5477;48.806;9.154;2023-02-02T00:44:30;6.60;99.90
10848;DHT22;5477;48.806;9.154;2023-02-02T00:47:24;6.60;99.90
10848;DHT22;5477;48.806;9.154;2023-02-02T00:49:52;6.60;99.90
10848;DHT22;5477;48.806;9.154;2023-02-02T00:52:20;6.60;99.90
10848;DHT22;5477;48.806;9.154;2023-02-02T00:54:49;6.60;99.90
10848;DHT22;5477;48.806;9.154;2023-02-02T00:57:17;6.60;99.90
10848;DHT22;5477;48.806;9.154;2023-02-02T00:59:45;6.60;99.90
10848;DHT22;5477;48.806;9.154;2023-02-02T01:02:13;6.60;99.90
10848;DHT22;5477;48.806;9.154;2023-02-02T01:04:41;6.60;99.90
10848;DHT22;5477;48.806;9.154;2023-02-02T01:07:09;6.60;99.90
10848;DHT22;5477;48.806;9.154;2023-02-02T01:09:40;6.60;99.90
10848;DHT22;5477;48.806;9.154;2023-02-02T01:12:10;6.60;99.90
10848;DHT22;5477;48.806;9.154;2023-02-02T01:14:38;6.60;99.90
10848;DHT22;5477;48.806;9.154;2023-02-02T01:17:05;6.60;99.90
10848;DHT22;5477;48.806;9.154;2023-02-02T01:19:34;6.60;99.90
10848;DHT22;5477;48.806;9.154;2023-02-02T01:22:02;6.60;99.90
10848;DHT22;5477;48.806;9.154;2023-02-02T01:24:30;6.60;99.90
10848;DHT22;5477;48.806;9.154;2023-02-02T01:26:58;6.60;99.90
10848;DHT22;5477;48.806;9.154;2023-02-02T01:29:27;6.70;99.90
10848;DHT22;5477;48.806;9.154;2023-02-02T01:31:55;6.70;99.90
10848;DHT22;5477;48.806;9.154;2023-02-02T01:34:23;6.70;99.90
10848;DHT22;5477;48.806;9.154;2023-02-02T01:36:51;6.70;99.90
10848;DHT22;5477;48.806;9.154;2023-02-02T01:39:19;6.60;99.90
10848;DHT22;5477;48.806;9.154;2023-02-02T01:41:47;6.60;99.90
10848;DHT22;5477;48.806;9.154;2023-02-02T01:45:01;6.60;99.90
10848;DHT22;5477;48.806;9.154;2023-02-02T01:47:36;6.50;99.90
10848;DHT22;5477;48.806;9.154;2023-02-02T01:50:05;6.50;99.90
10848;DHT22;5477;48.806;9.154;2023-02-02T01:52:35;6.50;99.90
10848;DHT22;5477;48.806;9.154;2023-02-02T01:55:06;6.40;99.90
10848;DHT22;5477;48.806;9.154;2023-02-02T01:57:38;6.40;99.90
10848;DHT22;5477;48.806;9.154;2023-02-02T02:00:12;6.40;99.90
10848;DHT22;5477;48.806;9.154;2023-02-02T02:02:43;6.40;99.90
10848;DHT22;5477;48.806;9.154;2023-02-02T02:05:17;6.50;99.90
10848;DHT22;5477;48.806;9.154;2023-02-02T02:07:47;6.50;99.90
10848;DHT22;5477;48.806;9.154;2023-02-02T02:10:17;6.50;99.90
10848;DHT22;5477;48.806;9.154;2023-02-02T02:12:47;6.50;99.90
10848;DHT22;5477;48.806;9.154;2023-02-02T02:15:16;6.50;99.90
10848;DHT22;5477;48.806;9.154;2023-02-02T02:18:09;6.50;99.90
10848;DHT22;5477;48.806;9.154;2023-02-02T02:21:05;6.50;99.90
10848;DHT22;5477;48.806;9.154;2023-02-02T02:24:31;6.50;99.90
10848;DHT22;5477;48.806;9.154;2023-02-02T02:30:40;6.50;99.90
10848;DHT22;5477;48.806;9.154;2023-02-02T02:33:15;6.50;99.90
10848;DHT22;5477;48.806;9.154;2023-02-02T02:35:51;6.50;99.90
10848;DHT22;5477;48.806;9.154;2023-02-02T02:38:29;6.50;99.90
10848;DHT22;5477;48.806;9.154;2023-02-02T02:41:02;6.50;99.90
10848;DHT22;5477;48.806;9.154;2023-02-02T02:43:35;6.50;99.90
10848;DHT22;5477;48.806;9.154;2023-02-02T02:46:04;6.50;99.90
10848;DHT22;5477;48.806;9.154;2023-02-02T02:48:34;6.50;99.90
10848;DHT22;5477;48.806;9.154;2023-02-02T02:51:07;6.50;99.90
10848;DHT22;5477;48.806;9.154;2023-02-02T02:53:36;6.50;99.90
10848;DHT22;5477;48.806;9.154;2023-02-02T02:56:10;6.50;99.90
10848;DHT22;5477;48.806;9.154;2023-02-02T02:58:46;6.50;99.90
10848;DHT22;5477;48.806;9.154;2023-02-02T03:01:20;6.50;99.90
10848;DHT22;5477;48.806;9.154;2023-02-02T03:04:06;6.50;99.90
10848;DHT22;5477;48.806;9.154;2023-02-02T03:06:40;6.50;99.90
10848;DHT22;5477;48.806;9.154;2023-02-02T03:09:13;6.50;99.90
10848;DHT22;5477;48.806;9.154;2023-02-02T03:11:41;6.50;99.90
10848;DHT22;5477;48.806;9.154;2023-02-02T03:14:10;6.50;99.90
10848;DHT22;5477;48.806;9.154;2023-02-02T03:16:38;6.50;99.90
10848;DHT22;5477;48.806;9.154;2023-02-02T03:19:08;6.50;99.90
10848;DHT22;5477;48.806;9.154;2023-02-02T03:21:36;6.50;99.90
10848;DHT22;5477;48.806;9.154;2023-02-02T03:24:04;6.50;99.90
10848;DHT22;5477;48.806;9.154;2023-02-02T03:26:32;6.50;99.90
10848;DHT22;5477;48.806;9.154;2023-02-02T03:29:01;6.50;99.90
10848;DHT22;5477;48.806;9.154;2023-02-02T03:31:29;6.50;99.90
10848;DHT22;5477;48.806;9.154;2023-02-02T03:33:57;6.60;99.90
10848;DHT22;5477;48.806;9.154;2023-02-02T03:36:26;6.60;99.90
10848;DHT22;5477;48.806;9.154;2023-02-02T03:38:54;6.60;99.90
10848;DHT22;5477;48.806;9.154;2023-02-02T03:41:22;6.60;99.90
10848;DHT22;5477;48.806;9.154;2023-02-02T03:43:50;6.60;99.90
10848;DHT22;5477;48.806;9.154;2023-02-02T03:46:18;6.60;99.90
10848;DHT22;5477;48.806;9.154;2023-02-02T03:48:46;6.60;99.90
10848;DHT22;5477;48.806;9.154;2023-02-02T03:51:14;6.60;99.90
10848;DHT22;5477;48.806;9.154;2023-02-02T03:53:44;6.60;99.90
10848;DHT22;5477;48.806;9.154;2023-02-02T03:56:13;6.60;99.90
10848;DHT22;5477;48.806;9.154;2023-02-02T03:58:41;6.60;99.90
10848;DHT22;5477;48.806;9.154;2023-02-02T04:01:11;6.60;99.90
10848;DHT22;5477;48.806;9.154;2023-02-02T04:03:39;6.60;99.90
10848;DHT22;5477;48.806;9.154;2023-02-02T04:06:07;6.60;99.90
10848;DHT22;5477;48.806;9.154;2023-02-02T04:08:35;6.60;99.90
10848;DHT22;5477;48.806;9.154;2023-02-02T04:11:08;6.50;99.90
10848;DHT22;5477;48.806;9.154;2023-02-02T04:13:36;6.60;99.90
10848;DHT22;5477;48.806;9.154;2023-02-02T04:16:05;6.60;99.90
10848;DHT22;5477;48.806;9.154;2023-02-02T04:18:33;6.60;99.90
10848;DHT22;5477;48.806;9.154;2023-02-02T04:21:05;6.60;99.90
10848;DHT22;5477;48.806;9.154;2023-02-02T04:23:33;6.60;99.90
10848;DHT22;5477;48.806;9.154;2023-02-02T04:26:01;6.60;99.90
10848;DHT22;5477;48.806;9.154;2023-02-02T04:28:31;6.60;99.90
10848;DHT22;5477;48.806;9.154;2023-02-02T04:30:59;6.60;99.90
10848;DHT22;5477;48.806;9.154;2023-02-02T04:33:27;6.60;99.90
10848;DHT22;5477;48.806;9.154;2023-02-02T04:35:55;6.60;99.90
10848;DHT22;5477;48.806;9.154;2023-02-02T04:38:23;6.60;99.90
10848;DHT22;5477;48.806;9.154;2023-02-02T04:40:51;6.60;99.90
10848;DHT22;5477;48.806;9.154;2023-02-02T04:43:19;6.60;99.90
10848;DHT22;5477;48.806;9.154;2023-02-02T04:45:53;6.60;99.90
10848;DHT22;5477;48.806;9.154;2023-02-02T04:48:21;6.60;99.90
10848;DHT22;5477;48.806;9.154;2023-02-02T04:50:49;6.60;99.90
10848;DHT22;5477;48.806;9.154;2023-02-02T04:53:17;6.60;99.90
10848;DHT22;5477;48.806;9.154;2023-02-02T04:55:45;6.60;99.90
10848;DHT22;5477;48.806;9.154;2023-02-02T04:58:13;6.60;99.90
10848;DHT22;5477;48.806;9.154;2023-02-02T05:00:41;6.60;99.90
10848;DHT22;5477;48.806;9.154;2023-02-02T05:03:10;6.70;99.90
10848;DHT22;5477;48.806;9.154;2023-02-02T05:05:38;6.70;99.90
10848;DHT22;5477;48.806;9.154;2023-02-02T05:08:06;6.70;99.90
10848;DHT22;5477;48.806;9.154;2023-02-02T05:10:39;6.70;99.90
10848;DHT22;5477;48.806;9.154;2023-02-02T05:13:07;6.70;99.90
10848;DHT22;5477;48.806;9.154;2023-02-02T05:15:35;6.70;99.90
10848;DHT22;5477;48.806;9.154;2023-02-02T05:18:03;6.70;99.90
10848;DHT22;5477;48.806;9.154;2023-02-02T05:20:32;6.70;99.90
10848;DHT22;5477;48.806;9.154;2023-02-02T05:23:00;6.70;99.90
10848;DHT22;5477;48.806;9.154;2023-02-02T05:25:29;6.70;99.90
10848;DHT22;5477;48.806;9.154;2023-02-02T05:27:57;6.70;99.90
10848;DHT22;5477;48.806;9.154;2023-02-02T05:30:24;6.70;99.90
10848;DHT22;5477;48.806;9.154;2023-02-02T05:32:52;6.70;99.90
10848;DHT22;5477;48.806;9.154;2023-02-02T05:35:20;6.70;99.90
10848;DHT22;5477;48.806;9.154;2023-02-02T05:37:50;6.70;99.90
10848;DHT22;5477;48.806;9.154;2023-02-02T05:40:18;6.70;99.90
10848;DHT22;5477;48.806;9.154;2023-02-02T05:42:47;6.60;99.90
10848;DHT22;5477;48.806;9.154;2023-02-02T05:45:15;6.70;99.90
10848;DHT22;5477;48.806;9.154;2023-02-02T05:47:43;6.70;99.90
10848;DHT22;5477;48.806;9.154;2023-02-02T05:50:11;6.70;99.90
10848;DHT22;5477;48.806;9.154;2023-02-02T05:52:39;6.70;99.90
10848;DHT22;5477;48.806;9.154;2023-02-02T05:55:10;6.70;99.90
10848;DHT22;5477;48.806;9.154;2023-02-02T05:57:37;6.70;99.90
10848;DHT22;5477;48.806;9.154;2023-02-02T06:00:07;6.70;99.90
10848;DHT22;5477;48.806;9.154;2023-02-02T06:02:37;6.70;99.90
10848;DHT22;5477;48.806;9.154;2023-02-02T06:05:06;6.70;99.90
10848;DHT22;5477;48.806;9.154;2023-02-02T06:07:34;6.60;99.90
10848;DHT22;5477;48.806;9.154;2023-02-02T06:10:03;6.70;99.90
10848;DHT22;5477;48.806;9.154;2023-02-02T06:12:32;6.70;99.90
10848;DHT22;5477;48.806;9.154;2023-02-02T06:15:00;6.70;99.90
10848;DHT22;5477;48.806;9.154;2023-02-02T06:17:28;6.70;99.90
10848;DHT22;5477;48.806;9.154;2023-02-02T06:19:56;6.70;99.90
10848;DHT22;5477;48.806;9.154;2023-02-02T06:22:24;6.70;99.90
10848;DHT22;5477;48.806;9.154;2023-02-02T06:24:52;6.70;99.90
10848;DHT22;5477;48.806;9.154;2023-02-02T06:27:20;6.70;99.90
10848;DHT22;5477;48.806;9.154;2023-02-02T06:29:49;6.70;99.90
10848;DHT22;5477;48.806;9.154;2023-02-02T06:32:17;6.70;99.90
10848;DHT22;5477;48.806;9.154;2023-02-02T06:34:44;6.70;99.90
10848;DHT22;5477;48.806;9.154;2023-02-02T06:37:13;6.70;99.90
10848;DHT22;5477;48.806;9.154;2023-02-02T06:39:40;6.70;99.90
10848;DHT22;5477;48.806;9.154;2023-02-02T06:42:08;6.70;99.90
10848;DHT22;5477;48.806;9.154;2023-02-02T06:44:48;6.70;99.90
10848;DHT22;5477;48.806;9.154;2023-02-02T06:47:16;6.80;99.90
10848;DHT22;5477;48.806;9.154;2023-02-02T06:49:44;6.80;99.90
10848;DHT22;5477;48.806;9.154;2023-02-02T06:52:12;6.80;99.90
10848;DHT22;5477;48.806;9.154;2023-02-02T06:54:40;6.70;99.90
10848;DHT22;5477;48.806;9.154;2023-02-02T06:57:08;6.70;99.90
10848;DHT22;5477;48.806;9.154;2023-02-02T06:59:36;6.70;99.90
10848;DHT22;5477;48.806;9.154;2023-02-02T07:02:10;6.70;99.90
10848;DHT22;5477;48.806;9.154;2023-02-02T07:04:38;6.80;99.90
10848;DHT22;5477;48.806;9.154;2023-02-02T07:07:06;6.70;99.90
10848;DHT22;5477;48.806;9.154;2023-02-02T07:09:34;6.70;99.90
10848;DHT22;5477;48.806;9.154;2023-02-02T07:12:03;6.80;99.90
10848;DHT22;5477;48.806;9.154;2023-02-02T07:14:30;6.70;99.90
10848;DHT22;5477;48.806;9.154;2023-02-02T07:16:58;6.80;99.90
10848;DHT22;5477;48.806;9.154;2023-02-02T07:19:28;6.80;99.90
10848;DHT22;5477;48.806;9.154;2023-02-02T07:21:56;6.70;99.90
10848;DHT22;5477;48.806;9.154;2023-02-02T07:24:24;6.80;99.90
10848;DHT22;5477;48.806;9.154;2023-02-02T07:26:53;6.70;99.90
10848;DHT22;5477;48.806;9.154;2023-02-02T07:29:21;6.80;99.90
10848;DHT22;5477;48.806;9.154;2023-02-02T07:31:49;6.80;99.90
10848;DHT22;5477;48.806;9.154;2023-02-02T07:34:17;6.80;99.90
10848;DHT22;5477;48.806;9.154;2023-02-02T07:36:46;6.80;99.90
10848;DHT22;5477;48.806;9.154;2023-02-02T07:39:14;6.80;99.90
10848;DHT22;5477;48.806;9.154;2023-02-02T07:41:42;6.70;99.90
10848;DHT22;5477;48.806;9.154;2023-02-02T07:44:25;6.80;99.90
10848;DHT22;5477;48.806;9.154;2023-02-02T07:46:53;6.80;99.90
10848;DHT22;5477;48.806;9.154;2023-02-02T07:49:21;6.80;99.90
10848;DHT22;5477;48.806;9.154;2023-02-02T07:51:50;6.90;99.90
10848;DHT22;5477;48.806;9.154;2023-02-02T07:54:18;6.90;99.90
10848;DHT22;5477;48.806;9.154;2023-02-02T07:56:46;6.90;99.90
10848;DHT22;5477;48.806;9.154;2023-02-02T07:59:14;7.00;99.90
10848;DHT22;5477;48.806;9.154;2023-02-02T08:01:42;6.90;99.90
10848;DHT22;5477;48.806;9.154;2023-02-02T08:04:10;6.90;99.90
10848;DHT22;5477;48.806;9.154;2023-02-02T08:06:39;7.00;99.90
10848;DHT22;5477;48.806;9.154;2023-02-02T08:09:09;7.00;99.90
10848;DHT22;5477;48.806;9.154;2023-02-02T08:11:37;7.10;99.90
10848;DHT22;5477;48.806;9.154;2023-02-02T08:14:05;7.10;99.90
10848;DHT22;5477;48.806;9.154;2023-02-02T08:16:34;7.10;99.90
10848;DHT22;5477;48.806;9.154;2023-02-02T08:19:02;7.10;99.90
10848;DHT22;5477;48.806;9.154;2023-02-02T08:21:32;7.10;99.90
10848;DHT22;5477;48.806;9.154;2023-02-02T08:24:00;7.10;99.90
10848;DHT22;5477;48.806;9.154;2023-02-02T08:26:31;7.20;99.90
10848;DHT22;5477;48.806;9.154;2023-02-02T08:29:02;7.20;99.90
10848;DHT22;5477;48.806;9.154;2023-02-02T08:31:31;7.30;99.90
10848;DHT22;5477;48.806;9.154;2023-02-02T08:34:00;7.30;99.90
10848;DHT22;5477;48.806;9.154;2023-02-02T08:36:29;7.30;99.90
10848;DHT22;5477;48.806;9.154;2023-02-02T08:38:59;7.30;99.90
10848;DHT22;5477;48.806;9.154;2023-02-02T08:41:30;7.40;99.90
10848;DHT22;5477;48.806;9.154;2023-02-02T08:43:58;7.40;99.90
10848;DHT22;5477;48.806;9.154;2023-02-02T08:46:26;7.50;99.90
10848;DHT22;5477;48.806;9.154;2023-02-02T08:48:54;7.50;99.90
10848;DHT22;5477;48.806;9.154;2023-02-02T08:51:22;7.40;99.90
10848;DHT22;5477;48.806;9.154;2023-02-02T08:53:50;7.40;99.90
10848;DHT22;5477;48.806;9.154;2023-02-02T08:56:19;7.40;99.90
10848;DHT22;5477;48.806;9.154;2023-02-02T08:58:52;7.40;99.90
10848;DHT22;5477;48.806;9.154;2023-02-02T09:01:22;7.40;99.90
10848;DHT22;5477;48.806;9.154;2023-02-02T09:03:52;7.50;99.90
10848;DHT22;5477;48.806;9.154;2023-02-02T09:06:21;7.40;99.90
10848;DHT22;5477;48.806;9.154;2023-02-02T09:08:52;7.40;99.90
10848;DHT22;5477;48.806;9.154;2023-02-02T09:11:21;7.40;99.90
10848;DHT22;5477;48.806;9.154;2023-02-02T09:13:53;7.30;99.90
10848;DHT22;5477;48.806;9.154;2023-02-02T09:16:23;7.30;99.90
10848;DHT22;5477;48.806;9.154;2023-02-02T09:18:53;7.30;99.90
10848;DHT22;5477;48.806;9.154;2023-02-02T09:21:21;7.20;99.90
10848;DHT22;5477;48.806;9.154;2023-02-02T09:23:51;7.30;99.90
10848;DHT22;5477;48.806;9.154;2023-02-02T09:26:21;7.30;99.90
10848;DHT22;5477;48.806;9.154;2023-02-02T09:28:53;7.20;99.90
10848;DHT22;5477;48.806;9.154;2023-02-02T09:31:22;7.20;99.90
10848;DHT22;5477;48.806;9.154;2023-02-02T09:33:50;7.20;99.90
10848;DHT22;5477;48.806;9.154;2023-02-02T09:36:20;7.30;99.90
10848;DHT22;5477;48.806;9.154;2023-02-02T09:38:49;7.30;99.90
10848;DHT22;5477;48.806;9.154;2023-02-02T09:44:32;7.20;99.90
10848;DHT22;5477;48.806;9.154;2023-02-02T09:47:11;7.30;99.90
10848;DHT22;5477;48.806;9.154;2023-02-02T09:49:52;7.30;99.90
10848;DHT22;5477;48.806;9.154;2023-02-02T09:52:23;7.20;99.90
10848;DHT22;5477;48.806;9.154;2023-02-02T09:54:56;7.10;99.90
10848;DHT22;5477;48.806;9.154;2023-02-02T09:57:28;7.10;99.90
10848;DHT22;5477;48.806;9.154;2023-02-02T09:59:59;7.10;99.90
10848;DHT22;5477;48.806;9.154;2023-02-02T10:02:39;7.20;99.90
10848;DHT22;5477;48.806;9.154;2023-02-02T10:05:14;7.10;99.90
10848;DHT22;5477;48.806;9.154;2023-02-02T10:07:47;7.20;99.90
10848;DHT22;5477;48.806;9.154;2023-02-02T10:10:21;7.20;99.90
10848;DHT22;5477;48.806;9.154;2023-02-02T10:12:55;7.20;99.90
10848;DHT22;5477;48.806;9.154;2023-02-02T10:15:32;7.20;99.90
10848;DHT22;5477;48.806;9.154;2023-02-02T10:18:09;7.20;99.90
10848;DHT22;5477;48.806;9.154;2023-02-02T10:20:42;7.20;99.90
10848;DHT22;5477;48.806;9.154;2023-02-02T10:23:18;7.20;99.90
10848;DHT22;5477;48.806;9.154;2023-02-02T10:25:57;7.20;99.90
10848;DHT22;5477;48.806;9.154;2023-02-02T10:28:40;7.20;99.90
10848;DHT22;5477;48.806;9.154;2023-02-02T10:31:21;7.30;99.90
10848;DHT22;5477;48.806;9.154;2023-02-02T10:34:01;7.30;99.90
10848;DHT22;5477;48.806;9.154;2023-02-02T10:36:42;7.30;99.90
10848;DHT22;5477;48.806;9.154;2023-02-02T10:39:20;7.30;99.90
10848;DHT22;5477;48.806;9.154;2023-02-02T10:41:58;7.30;99.90
10848;DHT22;5477;48.806;9.154;2023-02-02T10:44:32;7.20;99.90
10848;DHT22;5477;48.806;9.154;2023-02-02T10:47:09;7.20;99.90
10848;DHT22;5477;48.806;9.154;2023-02-02T10:49:40;7.30;99.90
10848;DHT22;5477;48.806;9.154;2023-02-02T10:52:15;7.30;99.90
10848;DHT22;5477;48.806;9.154;2023-02-02T10:54:56;7.30;99.90
10848;DHT22;5477;48.806;9.154;2023-02-02T10:57:42;7.20;99.90
10848;DHT22;5477;48.806;9.154;2023-02-02T11:00:19;7.20;99.90
10848;DHT22;5477;48.806;9.154;2023-02-02T11:02:51;7.30;99.90
10848;DHT22;5477;48.806;9.154;2023-02-02T11:05:22;7.30;99.90
10848;DHT22;5477;48.806;9.154;2023-02-02T11:08:16;7.40;99.90
10848;DHT22;5477;48.806;9.154;2023-02-02T11:10:46;7.40;99.90
10848;DHT22;5477;48.806;9.154;2023-02-02T11:13:18;7.50;99.90
10848;DHT22;5477;48.806;9.154;2023-02-02T11:15:48;7.50;99.90
10848;DHT22;5477;48.806;9.154;2023-02-02T11:18:27;7.40;99.90
10848;DHT22;5477;48.806;9.154;2023-02-02T11:20:56;7.50;99.90
10848;DHT22;5477;48.806;9.154;2023-02-02T11:23:26;7.50;99.90
10848;DHT22;5477;48.806;9.154;2023-02-02T11:25:59;7.50;99.90
10848;DHT22;5477;48.806;9.154;2023-02-02T11:28:33;7.50;99.90
10848;DHT22;5477;48.806;9.154;2023-02-02T11:31:02;7.50;99.90
10848;DHT22;5477;48.806;9.154;2023-02-02T11:33:33;7.60;99.90
10848;DHT22;5477;48.806;9.154;2023-02-02T11:36:04;7.70;99.90
10848;DHT22;5477;48.806;9.154;2023-02-02T11:38:32;7.70;99.90
10848;DHT22;5477;48.806;9.154;2023-02-02T11:41:02;7.60;99.90
10848;DHT22;5477;48.806;9.154;2023-02-02T11:43:33;7.60;99.90
10848;DHT22;5477;48.806;9.154;2023-02-02T11:46:17;7.60;99.90
10848;DHT22;5477;48.806;9.154;2023-02-02T11:48:53;7.60;99.90
10848;DHT22;5477;48.806;9.154;2023-02-02T11:51:26;7.50;99.90
10848;DHT22;5477;48.806;9.154;2023-02-02T11:54:01;7.60;99.90
10848;DHT22;5477;48.806;9.154;2023-02-02T11:56:31;7.60;99.90
10848;DHT22;5477;48.806;9.154;2023-02-02T11:59:00;7.60;99.90
10848;DHT22;5477;48.806;9.154;2023-02-02T12:01:31;7.50;99.90
10848;DHT22;5477;48.806;9.154;2023-02-02T12:04:02;7.50;99.90
10848;DHT22;5477;48.806;9.154;2023-02-02T12:06:34;7.50;99.90
10848;DHT22;5477;48.806;9.154;2023-02-02T12:09:11;7.50;99.90
10848;DHT22;5477;48.806;9.154;2023-02-02T12:11:50;7.40;99.90
10848;DHT22;5477;48.806;9.154;2023-02-02T12:14:28;7.40;99.90
10848;DHT22;5477;48.806;9.154;2023-02-02T12:17:12;7.30;99.90
10848;DHT22;5477;48.806;9.154;2023-02-02T12:20:07;7.30;99.90
10848;DHT22;5477;48.806;9.154;2023-02-02T12:23:03;7.20;99.90
10848;DHT22;5477;48.806;9.154;2023-02-02T12:25:57;7.20;99.90
10848;DHT22;5477;48.806;9.154;2023-02-02T12:31:32;7.10;99.90
10848;DHT22;5477;48.806;9.154;2023-02-02T12:34:08;7.00;99.90
10848;DHT22;5477;48.806;9.154;2023-02-02T12:36:48;7.00;99.90
10848;DHT22;5477;48.806;9.154;2023-02-02T12:39:26;6.90;99.90
10848;DHT22;5477;48.806;9.154;2023-02-02T12:45:02;6.80;99.90
10848;DHT22;5477;48.806;9.154;2023-02-02T12:47:41;6.80;99.90
10848;DHT22;5477;48.806;9.154;2023-02-02T12:50:23;6.70;99.90
10848;DHT22;5477;48.806;9.154;2023-02-02T12:53:23;6.70;99.90
10848;DHT22;5477;48.806;9.154;2023-02-02T12:55:59;6.70;99.90
10848;DHT22;5477;48.806;9.154;2023-02-02T12:58:36;6.60;99.90
10848;DHT22;5477;48.806;9.154;2023-02-02T13:01:17;6.60;99.90
10848;DHT22;5477;48.806;9.154;2023-02-02T13:04:01;6.60;99.90
10848;DHT22;5477;48.806;9.154;2023-02-02T13:06:51;6.60;99.90
10848;DHT22;5477;48.806;9.154;2023-02-02T13:09:29;6.60;99.90
10848;DHT22;5477;48.806;9.154;2023-02-02T13:12:01;6.60;99.90
10848;DHT22;5477;48.806;9.154;2023-02-02T13:14:35;6.70;99.90
10848;DHT22;5477;48.806;9.154;2023-02-02T13:17:10;6.70;99.90
10848;DHT22;5477;48.806;9.154;2023-02-02T13:19:40;6.70;99.90
10848;DHT22;5477;48.806;9.154;2023-02-02T13:22:13;6.70;99.90
10848;DHT22;5477;48.806;9.154;2023-02-02T13:24:45;6.70;99.90
10848;DHT22;5477;48.806;9.154;2023-02-02T13:27:17;6.70;99.90
10848;DHT22;5477;48.806;9.154;2023-02-02T13:29:51;6.70;99.90
10848;DHT22;5477;48.806;9.154;2023-02-02T13:32:25;6.80;99.90
10848;DHT22;5477;48.806;9.154;2023-02-02T13:34:58;6.80;99.90
10848;DHT22;5477;48.806;9.154;2023-02-02T13:37:32;6.80;99.90
10848;DHT22;5477;48.806;9.154;2023-02-02T13:40:12;6.90;99.90
10848;DHT22;5477;48.806;9.154;2023-02-02T13:42:45;6.90;99.90
10848;DHT22;5477;48.806;9.154;2023-02-02T13:45:37;7.00;99.90
10848;DHT22;5477;48.806;9.154;2023-02-02T13:48:15;7.00;99.90
10848;DHT22;5477;48.806;9.154;2023-02-02T13:51:00;7.00;99.90
10848;DHT22;5477;48.806;9.154;2023-02-02T13:53:45;7.00;99.90
10848;DHT22;5477;48.806;9.154;2023-02-02T13:56:33;7.00;99.90
10848;DHT22;5477;48.806;9.154;2023-02-02T13:59:35;7.00;99.90
10848;DHT22;5477;48.806;9.154;2023-02-02T14:02:17;7.10;99.90
10848;DHT22;5477;48.806;9.154;2023-02-02T14:04:55;7.10;99.90
10848;DHT22;5477;48.806;9.154;2023-02-02T14:07:33;7.10;99.90
10848;DHT22;5477;48.806;9.154;2023-02-02T14:10:04;7.10;99.90
10848;DHT22;5477;48.806;9.154;2023-02-02T14:12:34;7.20;99.90
10848;DHT22;5477;48.806;9.154;2023-02-02T14:15:04;7.20;99.90
10848;DHT22;5477;48.806;9.154;2023-02-02T14:17:52;7.20;99.90
10848;DHT22;5477;48.806;9.154;2023-02-02T14:20:42;7.30;99.90
10848;DHT22;5477;48.806;9.154;2023-02-02T14:26:19;7.30;99.90
10848;DHT22;5477;48.806;9.154;2023-02-02T14:29:35;7.30;99.90
10848;DHT22;5477;48.806;9.154;2023-02-02T14:32:32;7.30;99.90
10848;DHT22;5477;48.806;9.154;2023-02-02T14:38:18;7.30;99.90
10848;DHT22;5477;48.806;9.154;2023-02-02T14:40:53;7.30;99.90
10848;DHT22;5477;48.806;9.154;2023-02-02T14:43:29;7.30;99.90
10848;DHT22;5477;48.806;9.154;2023-02-02T14:46:23;7.30;99.90
10848;DHT22;5477;48.806;9.154;2023-02-02T14:49:17;7.30;99.90
10848;DHT22;5477;48.806;9.154;2023-02-02T14:51:52;7.40;99.90
10848;DHT22;5477;48.806;9.154;2023-02-02T14:54:24;7.40;99.90
10848;DHT22;5477;48.806;9.154;2023-02-02T14:56:57;7.40;99.90
10848;DHT22;5477;48.806;9.154;2023-02-02T14:59:28;7.40;99.90
10848;DHT22;5477;48.806;9.154;2023-02-02T15:02:15;7.40;99.90
10848;DHT22;5477;48.806;9.154;2023-02-02T15:04:44;7.40;99.90
10848;DHT22;5477;48.806;9.154;2023-02-02T15:07:51;7.40;99.90
10848;DHT22;5477;48.806;9.154;2023-02-02T15:14:14;7.40;99.90
10848;DHT22;5477;48.806;9.154;2023-02-02T15:17:18;7.40;99.90
10848;DHT22;5477;48.806;9.154;2023-02-02T15:19:52;7.40;99.90
10848;DHT22;5477;48.806;9.154;2023-02-02T15:22:28;7.40;99.90
10848;DHT22;5477;48.806;9.154;2023-02-02T15:24:59;7.40;99.90
10848;DHT22;5477;48.806;9.154;2023-02-02T15:27:29;7.40;99.90
10848;DHT22;5477;48.806;9.154;2023-02-02T15:30:02;7.40;99.90
10848;DHT22;5477;48.806;9.154;2023-02-02T15:32:32;7.40;99.90
10848;DHT22;5477;48.806;9.154;2023-02-02T15:35:04;7.50;99.90
10848;DHT22;5477;48.806;9.154;2023-02-02T15:37:36;7.40;99.90
10848;DHT22;5477;48.806;9.154;2023-02-02T15:40:12;7.40;99.90
10848;DHT22;5477;48.806;9.154;2023-02-02T15:42:43;7.40;99.90
10848;DHT22;5477;48.806;9.154;2023-02-02T15:45:32;7.30;99.90
10848;DHT22;5477;48.806;9.154;2023-02-02T15:48:06;7.30;99.90
10848;DHT22;5477;48.806;9.154;2023-02-02T15:50:36;7.30;99.90
10848;DHT22;5477;48.806;9.154;2023-02-02T15:53:05;7.30;99.90
10848;DHT22;5477;48.806;9.154;2023-02-02T15:55:34;7.30;99.90
10848;DHT22;5477;48.806;9.154;2023-02-02T16:00:55;7.20;99.90
10848;DHT22;5477;48.806;9.154;2023-02-02T16:03:33;7.30;99.90
10848;DHT22;5477;48.806;9.154;2023-02-02T16:06:04;7.30;99.90
10848;DHT22;5477;48.806;9.154;2023-02-02T16:08:36;7.30;99.90
10848;DHT22;5477;48.806;9.154;2023-02-02T16:11:08;7.30;99.90
10848;DHT22;5477;48.806;9.154;2023-02-02T16:13:38;7.40;99.90
10848;DHT22;5477;48.806;9.154;2023-02-02T16:16:21;7.40;99.90
10848;DHT22;5477;48.806;9.154;2023-02-02T16:19:13;7.40;99.90
10848;DHT22;5477;48.806;9.154;2023-02-02T16:21:45;7.40;99.90
10848;DHT22;5477;48.806;9.154;2023-02-02T16:24:18;7.40;99.90
10848;DHT22;5477;48.806;9.154;2023-02-02T16:26:47;7.40;99.90
10848;DHT22;5477;48.806;9.154;2023-02-02T16:29:17;7.40;99.90
10848;DHT22;5477;48.806;9.154;2023-02-02T16:31:46;7.40;99.90
10848;DHT22;5477;48.806;9.154;2023-02-02T16:34:17;7.40;99.90
10848;DHT22;5477;48.806;9.154;2023-02-02T16:37:03;7.40;99.90
10848;DHT22;5477;48.806;9.154;2023-02-02T16:39:31;7.50;99.90
10848;DHT22;5477;48.806;9.154;2023-02-02T16:42:09;7.50;99.90
10848;DHT22;5477;48.806;9.154;2023-02-02T16:44:39;7.50;99.90
10848;DHT22;5477;48.806;9.154;2023-02-02T16:47:32;7.40;99.90
10848;DHT22;5477;48.806;9.154;2023-02-02T16:50:25;7.40;99.90
10848;DHT22;5477;48.806;9.154;2023-02-02T16:52:56;7.40;99.90
10848;DHT22;5477;48.806;9.154;2023-02-02T16:55:26;7.40;99.90
10848;DHT22;5477;48.806;9.154;2023-02-02T16:58:17;7.40;99.90
10848;DHT22;5477;48.806;9.154;2023-02-02T17:00:56;7.30;99.90
10848;DHT22;5477;48.806;9.154;2023-02-02T17:03:46;7.30;99.90
10848;DHT22;5477;48.806;9.154;2023-02-02T17:06:25;7.40;99.90